sensor_id;sensor_type;location;lat;lon;timestamp;temperature;humidity
26803;DHT22;14378;51.796;5.808;2022-08-19T00:03:13;19.50;99.90
26803;DHT22;14378;51.796;5.808;2022-08-19T00:05:15;19.50;99.90
26803;DHT22;14378;51.796;5.808;2022-08-19T00:07:17;19.40;99.90
26803;DHT22;14378;51.796;5.808;2022-08-19T00:09:21;19.40;99.90
26803;DHT22;14378;51.796;5.808;2022-08-19T00:11:22;19.30;99.90
26803;DHT22;14378;51.796;5.808;2022-08-19T00:13:24;19.30;99.90
26803;DHT22;14378;51.796;5.808;2022-08-19T00:15:27;19.30;99.90
26803;DHT22;14378;51.796;5.808;2022-08-19T00:17:28;19.30;99.90
26803;DHT22;14378;51.796;5.808;2022-08-19T00:19:31;19.30;99.90
26803;DHT22;14378;51.796;5.808;2022-08-19T00:21:32;19.20;99.90
26803;DHT22;14378;51.796;5.808;2022-08-19T00:23:33;19.20;99.90
26803;DHT22;14378;51.796;5.808;2022-08-19T00:25:35;19.20;99.90
26803;DHT22;14378;51.796;5.808;2022-08-19T00:27:37;19.20;99.90
26803;DHT22;14378;51.796;5.808;2022-08-19T00:29:38;19.20;99.90
26803;DHT22;14378;51.796;5.808;2022-08-19T00:31:40;19.20;99.90
26803;DHT22;14378;51.796;5.808;2022-08-19T00:33:42;19.20;99.90
26803;DHT22;14378;51.796;5.808;2022-08-19T00:35:43;19.10;99.90
26803;DHT22;14378;51.796;5.808;2022-08-19T00:37:44;19.10;99.90
26803;DHT22;14378;51.796;5.808;2022-08-19T00:39:45;19.10;99.90
26803;DHT22;14378;51.796;5.808;2022-08-19T00:41:47;19.00;99.90
26803;DHT22;14378;51.796;5.808;2022-08-19T00:46:05;19.00;99.90
26803;DHT22;14378;51.796;5.808;2022-08-19T00:48:06;19.00;99.90
26803;DHT22;14378;51.796;5.808;2022-08-19T00:50:09;19.00;99.90
26803;DHT22;14378;51.796;5.808;2022-08-19T00:52:17;18.90;99.90
26803;DHT22;14378;51.796;5.808;2022-08-19T00:54:19;19.00;99.90
26803;DHT22;14378;51.796;5.808;2022-08-19T00:56:21;18.90;99.90
26803;DHT22;14378;51.796;5.808;2022-08-19T00:58:28;18.90;99.90
26803;DHT22;14378;51.796;5.808;2022-08-19T01:00:31;18.90;99.90
26803;DHT22;14378;51.796;5.808;2022-08-19T01:02:37;18.90;99.90
26803;DHT22;14378;51.796;5.808;2022-08-19T01:04:38;18.90;99.90
26803;DHT22;14378;51.796;5.808;2022-08-19T01:06:40;18.90;99.90
26803;DHT22;14378;51.796;5.808;2022-08-19T01:08:41;18.90;99.90
26803;DHT22;14378;51.796;5.808;2022-08-19T01:10:55;18.90;99.90
26803;DHT22;14378;51.796;5.808;2022-08-19T01:12:58;18.80;99.90
26803;DHT22;14378;51.796;5.808;2022-08-19T01:15:01;18.90;99.90
26803;DHT22;14378;51.796;5.808;2022-08-19T01:17:03;18.90;99.90
26803;DHT22;14378;51.796;5.808;2022-08-19T01:19:18;18.80;99.90
26803;DHT22;14378;51.796;5.808;2022-08-19T01:21:37;18.80;99.90
26803;DHT22;14378;51.796;5.808;2022-08-19T01:23:43;18.80;99.90
26803;DHT22;14378;51.796;5.808;2022-08-19T01:25:49;18.80;99.90
26803;DHT22;14378;51.796;5.808;2022-08-19T01:27:51;18.80;99.90
26803;DHT22;14378;51.796;5.808;2022-08-19T01:29:52;18.70;99.90
26803;DHT22;14378;51.796;5.808;2022-08-19T01:31:54;18.70;99.90
26803;DHT22;14378;51.796;5.808;2022-08-19T01:33:56;18.70;99.90
26803;DHT22;14378;51.796;5.808;2022-08-19T01:36:10;18.70;99.90
26803;DHT22;14378;51.796;5.808;2022-08-19T01:38:24;18.70;99.90
26803;DHT22;14378;51.796;5.808;2022-08-19T01:40:30;18.70;99.90
26803;DHT22;14378;51.796;5.808;2022-08-19T01:42:36;18.70;99.90
26803;DHT22;14378;51.796;5.808;2022-08-19T01:44:41;18.70;99.90
26803;DHT22;14378;51.796;5.808;2022-08-19T01:46:43;18.70;99.90
26803;DHT22;14378;51.796;5.808;2022-08-19T01:48:46;18.70;99.90
26803;DHT22;14378;51.796;5.808;2022-08-19T01:50:47;18.60;99.90
26803;DHT22;14378;51.796;5.808;2022-08-19T01:52:52;18.60;99.90
26803;DHT22;14378;51.796;5.808;2022-08-19T01:54:53;18.60;99.90
26803;DHT22;14378;51.796;5.808;2022-08-19T01:56:59;18.60;99.90
26803;DHT22;14378;51.796;5.808;2022-08-19T01:59:06;18.50;99.90
26803;DHT22;14378;51.796;5.808;2022-08-19T02:01:09;18.50;99.90
26803;DHT22;14378;51.796;5.808;2022-08-19T02:03:13;18.50;99.90
26803;DHT22;14378;51.796;5.808;2022-08-19T02:05:14;18.50;99.90
26803;DHT22;14378;51.796;5.808;2022-08-19T02:07:19;18.50;99.90
26803;DHT22;14378;51.796;5.808;2022-08-19T02:09:21;18.50;99.90
26803;DHT22;14378;51.796;5.808;2022-08-19T02:11:29;18.40;99.90
26803;DHT22;14378;51.796;5.808;2022-08-19T02:13:32;18.40;99.90
26803;DHT22;14378;51.796;5.808;2022-08-19T02:15:34;18.40;99.90
26803;DHT22;14378;51.796;5.808;2022-08-19T02:17:35;18.40;99.90
26803;DHT22;14378;51.796;5.808;2022-08-19T02:19:36;18.30;99.90
26803;DHT22;14378;51.796;5.808;2022-08-19T02:21:37;18.30;99.90
26803;DHT22;14378;51.796;5.808;2022-08-19T02:23:38;18.30;99.90
26803;DHT22;14378;51.796;5.808;2022-08-19T02:25:43;18.30;99.90
26803;DHT22;14378;51.796;5.808;2022-08-19T02:27:45;18.30;99.90
26803;DHT22;14378;51.796;5.808;2022-08-19T02:29:47;18.30;99.90
26803;DHT22;14378;51.796;5.808;2022-08-19T02:31:48;18.30;99.90
26803;DHT22;14378;51.796;5.808;2022-08-19T02:33:49;18.30;99.90
26803;DHT22;14378;51.796;5.808;2022-08-19T02:35:51;18.30;99.90
26803;DHT22;14378;51.796;5.808;2022-08-19T02:37:52;18.30;99.90
26803;DHT22;14378;51.796;5.808;2022-08-19T02:40:11;18.30;99.90
26803;DHT22;14378;51.796;5.808;2022-08-19T02:42:13;18.20;99.90
26803;DHT22;14378;51.796;5.808;2022-08-19T02:44:14;18.20;99.90
26803;DHT22;14378;51.796;5.808;2022-08-19T02:46:18;18.20;99.90
26803;DHT22;14378;51.796;5.808;2022-08-19T02:48:23;18.20;99.90
26803;DHT22;14378;51.796;5.808;2022-08-19T02:50:24;18.20;99.90
26803;DHT22;14378;51.796;5.808;2022-08-19T02:52:26;18.20;99.90
26803;DHT22;14378;51.796;5.808;2022-08-19T02:54:28;18.20;99.90
26803;DHT22;14378;51.796;5.808;2022-08-19T02:56:29;18.20;99.90
26803;DHT22;14378;51.796;5.808;2022-08-19T02:58:31;18.20;99.90
26803;DHT22;14378;51.796;5.808;2022-08-19T03:00:32;18.20;99.90
26803;DHT22;14378;51.796;5.808;2022-08-19T03:02:34;18.20;99.90
26803;DHT22;14378;51.796;5.808;2022-08-19T03:04:35;18.20;99.90
26803;DHT22;14378;51.796;5.808;2022-08-19T03:06:37;18.20;99.90
26803;DHT22;14378;51.796;5.808;2022-08-19T03:08:41;18.20;99.90
26803;DHT22;14378;51.796;5.808;2022-08-19T03:10:46;18.10;99.90
26803;DHT22;14378;51.796;5.808;2022-08-19T03:12:47;18.10;99.90
26803;DHT22;14378;51.796;5.808;2022-08-19T03:14:48;18.20;99.90
26803;DHT22;14378;51.796;5.808;2022-08-19T03:16:52;18.10;99.90
26803;DHT22;14378;51.796;5.808;2022-08-19T03:18:53;18.10;99.90
26803;DHT22;14378;51.796;5.808;2022-08-19T03:20:56;18.10;99.90
26803;DHT22;14378;51.796;5.808;2022-08-19T03:22:57;18.10;99.90
26803;DHT22;14378;51.796;5.808;2022-08-19T03:24:58;18.10;99.90
26803;DHT22;14378;51.796;5.808;2022-08-19T03:26:59;18.10;99.90
26803;DHT22;14378;51.796;5.808;2022-08-19T03:29:05;18.00;99.90
26803;DHT22;14378;51.796;5.808;2022-08-19T03:31:10;18.00;99.90
26803;DHT22;14378;51.796;5.808;2022-08-19T03:33:12;18.00;99.90
26803;DHT22;14378;51.796;5.808;2022-08-19T03:35:13;18.00;99.90
26803;DHT22;14378;51.796;5.808;2022-08-19T03:37:15;18.00;99.90
26803;DHT22;14378;51.796;5.808;2022-08-19T03:39:16;18.00;99.90
26803;DHT22;14378;51.796;5.808;2022-08-19T03:41:22;18.00;99.90
26803;DHT22;14378;51.796;5.808;2022-08-19T03:43:23;18.00;99.90
26803;DHT22;14378;51.796;5.808;2022-08-19T03:45:24;18.00;99.90
26803;DHT22;14378;51.796;5.808;2022-08-19T03:47:25;18.00;99.90
26803;DHT22;14378;51.796;5.808;2022-08-19T03:49:28;18.00;99.90
26803;DHT22;14378;51.796;5.808;2022-08-19T03:51:31;18.00;99.90
26803;DHT22;14378;51.796;5.808;2022-08-19T03:53:33;18.00;99.90
26803;DHT22;14378;51.796;5.808;2022-08-19T03:55:40;18.00;99.90
26803;DHT22;14378;51.796;5.808;2022-08-19T03:57:41;17.90;99.90
26803;DHT22;14378;51.796;5.808;2022-08-19T03:59:42;17.90;99.90
26803;DHT22;14378;51.796;5.808;2022-08-19T04:01:44;17.90;99.90
26803;DHT22;14378;51.796;5.808;2022-08-19T04:03:47;17.90;99.90
26803;DHT22;14378;51.796;5.808;2022-08-19T04:05:50;17.90;99.90
26803;DHT22;14378;51.796;5.808;2022-08-19T04:07:50;17.90;99.90
26803;DHT22;14378;51.796;5.808;2022-08-19T04:09:51;17.90;99.90
26803;DHT22;14378;51.796;5.808;2022-08-19T04:11:55;17.90;99.90
26803;DHT22;14378;51.796;5.808;2022-08-19T04:14:00;17.90;99.90
26803;DHT22;14378;51.796;5.808;2022-08-19T04:16:02;17.90;99.90
26803;DHT22;14378;51.796;5.808;2022-08-19T04:18:04;17.90;99.90
26803;DHT22;14378;51.796;5.808;2022-08-19T04:20:11;17.90;99.90
26803;DHT22;14378;51.796;5.808;2022-08-19T04:22:12;17.90;99.90
26803;DHT22;14378;51.796;5.808;2022-08-19T04:24:13;17.90;99.90
26803;DHT22;14378;51.796;5.808;2022-08-19T04:26:17;18.00;99.90
26803;DHT22;14378;51.796;5.808;2022-08-19T04:28:19;17.90;99.90
26803;DHT22;14378;51.796;5.808;2022-08-19T04:30:20;17.90;99.90
26803;DHT22;14378;51.796;5.808;2022-08-19T04:32:22;17.90;99.90
26803;DHT22;14378;51.796;5.808;2022-08-19T04:34:25;17.90;99.90
26803;DHT22;14378;51.796;5.808;2022-08-19T04:36:27;17.90;99.90
26803;DHT22;14378;51.796;5.808;2022-08-19T04:38:31;17.90;99.90
26803;DHT22;14378;51.796;5.808;2022-08-19T04:40:33;17.90;99.90
26803;DHT22;14378;51.796;5.808;2022-08-19T04:42:53;17.90;99.90
26803;DHT22;14378;51.796;5.808;2022-08-19T04:44:54;17.90;99.90
26803;DHT22;14378;51.796;5.808;2022-08-19T04:46:55;17.90;99.90
26803;DHT22;14378;51.796;5.808;2022-08-19T04:48:57;17.90;99.90
26803;DHT22;14378;51.796;5.808;2022-08-19T04:50:58;17.90;99.90
26803;DHT22;14378;51.796;5.808;2022-08-19T04:53:00;17.90;99.90
26803;DHT22;14378;51.796;5.808;2022-08-19T04:55:02;17.90;99.90
26803;DHT22;14378;51.796;5.808;2022-08-19T04:57:03;17.80;99.90
26803;DHT22;14378;51.796;5.808;2022-08-19T04:59:06;17.80;99.90
26803;DHT22;14378;51.796;5.808;2022-08-19T05:01:13;17.80;99.90
26803;DHT22;14378;51.796;5.808;2022-08-19T05:03:16;17.80;99.90
26803;DHT22;14378;51.796;5.808;2022-08-19T05:05:17;17.70;99.90
26803;DHT22;14378;51.796;5.808;2022-08-19T05:07:18;17.70;99.90
26803;DHT22;14378;51.796;5.808;2022-08-19T05:09:19;17.70;99.90
26803;DHT22;14378;51.796;5.808;2022-08-19T05:11:25;17.70;99.90
26803;DHT22;14378;51.796;5.808;2022-08-19T05:13:27;17.70;99.90
26803;DHT22;14378;51.796;5.808;2022-08-19T05:15:28;17.70;99.90
26803;DHT22;14378;51.796;5.808;2022-08-19T05:17:29;17.70;99.90
26803;DHT22;14378;51.796;5.808;2022-08-19T05:19:33;17.70;99.90
26803;DHT22;14378;51.796;5.808;2022-08-19T05:21:53;17.70;99.90
26803;DHT22;14378;51.796;5.808;2022-08-19T05:24:14;17.70;99.90
26803;DHT22;14378;51.796;5.808;2022-08-19T05:26:15;17.70;99.90
26803;DHT22;14378;51.796;5.808;2022-08-19T05:28:17;17.80;99.90
26803;DHT22;14378;51.796;5.808;2022-08-19T05:30:19;17.80;99.90
26803;DHT22;14378;51.796;5.808;2022-08-19T05:32:20;17.80;99.90
26803;DHT22;14378;51.796;5.808;2022-08-19T05:34:23;17.80;99.90
26803;DHT22;14378;51.796;5.808;2022-08-19T05:36:32;17.80;99.90
26803;DHT22;14378;51.796;5.808;2022-08-19T05:38:35;17.80;99.90
26803;DHT22;14378;51.796;5.808;2022-08-19T05:40:38;17.80;99.90
26803;DHT22;14378;51.796;5.808;2022-08-19T05:42:39;17.80;99.90
26803;DHT22;14378;51.796;5.808;2022-08-19T05:44:42;17.90;99.90
26803;DHT22;14378;51.796;5.808;2022-08-19T05:46:44;17.90;99.90
26803;DHT22;14378;51.796;5.808;2022-08-19T05:48:48;17.90;99.90
26803;DHT22;14378;51.796;5.808;2022-08-19T05:50:50;18.00;99.90
26803;DHT22;14378;51.796;5.808;2022-08-19T05:52:51;18.00;99.90
26803;DHT22;14378;51.796;5.808;2022-08-19T05:54:53;18.00;99.90
26803;DHT22;14378;51.796;5.808;2022-08-19T05:56:56;18.00;99.90
26803;DHT22;14378;51.796;5.808;2022-08-19T05:58:58;18.10;99.90
26803;DHT22;14378;51.796;5.808;2022-08-19T06:00:59;18.10;99.90
26803;DHT22;14378;51.796;5.808;2022-08-19T06:03:09;18.10;99.90
26803;DHT22;14378;51.796;5.808;2022-08-19T06:05:11;18.10;99.90
26803;DHT22;14378;51.796;5.808;2022-08-19T06:07:15;18.00;99.90
26803;DHT22;14378;51.796;5.808;2022-08-19T06:09:19;18.00;99.90
26803;DHT22;14378;51.796;5.808;2022-08-19T06:11:33;18.00;99.90
26803;DHT22;14378;51.796;5.808;2022-08-19T06:13:34;18.10;99.90
26803;DHT22;14378;51.796;5.808;2022-08-19T06:15:35;18.10;99.90
26803;DHT22;14378;51.796;5.808;2022-08-19T06:17:36;18.10;99.90
26803;DHT22;14378;51.796;5.808;2022-08-19T06:19:37;18.10;99.90
26803;DHT22;14378;51.796;5.808;2022-08-19T06:21:41;18.20;99.90
26803;DHT22;14378;51.796;5.808;2022-08-19T06:23:42;18.20;99.90
26803;DHT22;14378;51.796;5.808;2022-08-19T06:25:43;18.20;99.90
26803;DHT22;14378;51.796;5.808;2022-08-19T06:27:44;18.30;99.90
26803;DHT22;14378;51.796;5.808;2022-08-19T06:29:45;18.40;99.90
26803;DHT22;14378;51.796;5.808;2022-08-19T06:31:49;18.40;99.90
26803;DHT22;14378;51.796;5.808;2022-08-19T06:33:50;18.50;99.90
26803;DHT22;14378;51.796;5.808;2022-08-19T06:35:51;18.60;99.90
26803;DHT22;14378;51.796;5.808;2022-08-19T06:37:53;18.60;99.90
26803;DHT22;14378;51.796;5.808;2022-08-19T06:39:54;18.70;99.90
26803;DHT22;14378;51.796;5.808;2022-08-19T06:41:56;18.70;99.90
26803;DHT22;14378;51.796;5.808;2022-08-19T06:43:58;18.80;99.90
26803;DHT22;14378;51.796;5.808;2022-08-19T06:45:59;18.80;99.90
26803;DHT22;14378;51.796;5.808;2022-08-19T06:48:02;18.90;99.90
26803;DHT22;14378;51.796;5.808;2022-08-19T06:50:03;19.00;99.90
26803;DHT22;14378;51.796;5.808;2022-08-19T06:52:06;19.10;99.90
26803;DHT22;14378;51.796;5.808;2022-08-19T06:54:07;19.10;99.90
26803;DHT22;14378;51.796;5.808;2022-08-19T06:56:09;19.20;99.90
26803;DHT22;14378;51.796;5.808;2022-08-19T06:58:10;19.30;99.90
26803;DHT22;14378;51.796;5.808;2022-08-19T07:00:11;19.40;99.90
26803;DHT22;14378;51.796;5.808;2022-08-19T07:02:14;19.40;99.90
26803;DHT22;14378;51.796;5.808;2022-08-19T07:04:21;19.50;99.90
26803;DHT22;14378;51.796;5.808;2022-08-19T07:06:22;19.60;99.90
26803;DHT22;14378;51.796;5.808;2022-08-19T07:08:23;19.60;99.90
26803;DHT22;14378;51.796;5.808;2022-08-19T07:10:24;19.60;99.90
26803;DHT22;14378;51.796;5.808;2022-08-19T07:12:28;19.70;99.90
26803;DHT22;14378;51.796;5.808;2022-08-19T07:14:29;19.70;99.90
26803;DHT22;14378;51.796;5.808;2022-08-19T07:16:32;19.80;99.90
26803;DHT22;14378;51.796;5.808;2022-08-19T07:18:34;19.80;99.90
26803;DHT22;14378;51.796;5.808;2022-08-19T07:20:35;19.80;99.90
26803;DHT22;14378;51.796;5.808;2022-08-19T07:22:39;19.70;99.90
26803;DHT22;14378;51.796;5.808;2022-08-19T07:24:40;19.70;99.90
26803;DHT22;14378;51.796;5.808;2022-08-19T07:26:42;19.70;99.90
26803;DHT22;14378;51.796;5.808;2022-08-19T07:28:44;19.80;99.90
26803;DHT22;14378;51.796;5.808;2022-08-19T07:30:45;19.80;99.90
26803;DHT22;14378;51.796;5.808;2022-08-19T07:32:46;19.80;99.90
26803;DHT22;14378;51.796;5.808;2022-08-19T07:34:47;19.90;99.90
26803;DHT22;14378;51.796;5.808;2022-08-19T07:36:49;19.90;99.90
26803;DHT22;14378;51.796;5.808;2022-08-19T07:38:51;20.00;99.90
26803;DHT22;14378;51.796;5.808;2022-08-19T07:40:54;20.00;99.90
26803;DHT22;14378;51.796;5.808;2022-08-19T07:42:55;20.10;99.90
26803;DHT22;14378;51.796;5.808;2022-08-19T07:44:57;20.20;99.90
26803;DHT22;14378;51.796;5.808;2022-08-19T07:46:59;20.20;99.90
26803;DHT22;14378;51.796;5.808;2022-08-19T07:49:02;20.20;99.90
26803;DHT22;14378;51.796;5.808;2022-08-19T07:51:05;20.20;99.90
26803;DHT22;14378;51.796;5.808;2022-08-19T07:53:08;20.20;99.90
26803;DHT22;14378;51.796;5.808;2022-08-19T07:55:10;20.20;99.90
26803;DHT22;14378;51.796;5.808;2022-08-19T07:57:11;20.30;99.90
26803;DHT22;14378;51.796;5.808;2022-08-19T07:59:12;20.50;99.90
26803;DHT22;14378;51.796;5.808;2022-08-19T08:01:23;20.60;99.90
26803;DHT22;14378;51.796;5.808;2022-08-19T08:03:25;20.80;99.90
26803;DHT22;14378;51.796;5.808;2022-08-19T08:05:46;20.80;99.90
26803;DHT22;14378;51.796;5.808;2022-08-19T08:08:06;20.90;99.90
26803;DHT22;14378;51.796;5.808;2022-08-19T08:10:43;21.00;99.90
26803;DHT22;14378;51.796;5.808;2022-08-19T08:12:44;21.10;99.90
26803;DHT22;14378;51.796;5.808;2022-08-19T08:14:48;21.10;99.90
26803;DHT22;14378;51.796;5.808;2022-08-19T08:16:50;21.10;99.90
26803;DHT22;14378;51.796;5.808;2022-08-19T08:18:51;21.20;99.90
26803;DHT22;14378;51.796;5.808;2022-08-19T08:20:57;21.20;99.90
26803;DHT22;14378;51.796;5.808;2022-08-19T08:22:58;21.40;99.90
26803;DHT22;14378;51.796;5.808;2022-08-19T08:25:20;21.50;99.90
26803;DHT22;14378;51.796;5.808;2022-08-19T08:27:23;21.50;99.90
26803;DHT22;14378;51.796;5.808;2022-08-19T08:29:29;21.50;99.90
26803;DHT22;14378;51.796;5.808;2022-08-19T08:31:34;21.60;99.90
26803;DHT22;14378;51.796;5.808;2022-08-19T08:33:35;21.70;99.90
26803;DHT22;14378;51.796;5.808;2022-08-19T08:35:40;21.90;99.90
26803;DHT22;14378;51.796;5.808;2022-08-19T08:37:47;22.00;99.90
26803;DHT22;14378;51.796;5.808;2022-08-19T08:39:50;22.10;99.90
26803;DHT22;14378;51.796;5.808;2022-08-19T08:43:55;22.30;99.90
26803;DHT22;14378;51.796;5.808;2022-08-19T08:46:00;22.40;99.90
26803;DHT22;14378;51.796;5.808;2022-08-19T08:48:14;22.50;99.90
26803;DHT22;14378;51.796;5.808;2022-08-19T08:50:23;22.50;99.90
26803;DHT22;14378;51.796;5.808;2022-08-19T08:52:39;22.60;99.90
26803;DHT22;14378;51.796;5.808;2022-08-19T08:54:46;22.70;99.90
26803;DHT22;14378;51.796;5.808;2022-08-19T08:56:49;22.70;99.90
26803;DHT22;14378;51.796;5.808;2022-08-19T09:00:58;23.00;99.90
26803;DHT22;14378;51.796;5.808;2022-08-19T09:03:00;23.10;99.90
26803;DHT22;14378;51.796;5.808;2022-08-19T09:05:06;23.10;99.90
26803;DHT22;14378;51.796;5.808;2022-08-19T09:07:46;23.20;99.90
26803;DHT22;14378;51.796;5.808;2022-08-19T09:09:52;23.30;99.90
26803;DHT22;14378;51.796;5.808;2022-08-19T09:16:31;23.90;99.90
26803;DHT22;14378;51.796;5.808;2022-08-19T09:18:46;24.00;99.90
26803;DHT22;14378;51.796;5.808;2022-08-19T09:20:54;24.10;99.90
26803;DHT22;14378;51.796;5.808;2022-08-19T09:22:56;24.40;99.90
26803;DHT22;14378;51.796;5.808;2022-08-19T09:24:57;24.50;99.90
26803;DHT22;14378;51.796;5.808;2022-08-19T09:26:58;24.60;99.90
26803;DHT22;14378;51.796;5.808;2022-08-19T09:28:59;24.60;99.90
26803;DHT22;14378;51.796;5.808;2022-08-19T09:31:01;24.50;99.90
26803;DHT22;14378;51.796;5.808;2022-08-19T09:33:02;24.40;99.90
26803;DHT22;14378;51.796;5.808;2022-08-19T09:35:03;24.50;99.90
26803;DHT22;14378;51.796;5.808;2022-08-19T09:37:07;24.50;99.90
26803;DHT22;14378;51.796;5.808;2022-08-19T09:39:08;24.50;99.90
26803;DHT22;14378;51.796;5.808;2022-08-19T09:41:15;24.60;99.90
26803;DHT22;14378;51.796;5.808;2022-08-19T09:43:16;24.70;99.90
26803;DHT22;14378;51.796;5.808;2022-08-19T09:45:20;24.70;99.90
26803;DHT22;14378;51.796;5.808;2022-08-19T09:47:22;24.80;99.90
26803;DHT22;14378;51.796;5.808;2022-08-19T09:49:23;24.80;99.90
26803;DHT22;14378;51.796;5.808;2022-08-19T09:51:25;25.00;99.90
26803;DHT22;14378;51.796;5.808;2022-08-19T09:53:28;25.00;99.90
26803;DHT22;14378;51.796;5.808;2022-08-19T09:55:29;25.10;99.90
26803;DHT22;14378;51.796;5.808;2022-08-19T09:57:31;24.90;99.90
26803;DHT22;14378;51.796;5.808;2022-08-19T09:59:32;24.80;99.90
26803;DHT22;14378;51.796;5.808;2022-08-19T10:01:34;24.60;99.90
26803;DHT22;14378;51.796;5.808;2022-08-19T10:03:36;24.60;99.90
26803;DHT22;14378;51.796;5.808;2022-08-19T10:05:37;24.70;99.90
26803;DHT22;14378;51.796;5.808;2022-08-19T10:07:51;24.80;99.90
26803;DHT22;14378;51.796;5.808;2022-08-19T10:09:52;24.90;99.90
26803;DHT22;14378;51.796;5.808;2022-08-19T10:11:53;25.10;99.90
26803;DHT22;14378;51.796;5.808;2022-08-19T10:13:54;25.10;99.90
26803;DHT22;14378;51.796;5.808;2022-08-19T10:15:57;24.90;99.90
26803;DHT22;14378;51.796;5.808;2022-08-19T10:18:03;24.80;99.90
26803;DHT22;14378;51.796;5.808;2022-08-19T10:20:04;24.70;99.90
26803;DHT22;14378;51.796;5.808;2022-08-19T10:22:06;24.70;99.90
26803;DHT22;14378;51.796;5.808;2022-08-19T10:24:07;24.60;99.90
26803;DHT22;14378;51.796;5.808;2022-08-19T10:26:08;24.30;99.90
26803;DHT22;14378;51.796;5.808;2022-08-19T10:28:10;24.10;99.90
26803;DHT22;14378;51.796;5.808;2022-08-19T10:30:13;24.00;99.90
26803;DHT22;14378;51.796;5.808;2022-08-19T10:32:14;24.00;99.90
26803;DHT22;14378;51.796;5.808;2022-08-19T10:34:15;24.00;99.90
26803;DHT22;14378;51.796;5.808;2022-08-19T10:36:19;24.00;99.90
26803;DHT22;14378;51.796;5.808;2022-08-19T10:38:20;23.90;99.90
26803;DHT22;14378;51.796;5.808;2022-08-19T10:40:22;24.10;99.90
26803;DHT22;14378;51.796;5.808;2022-08-19T10:42:24;24.20;99.90
26803;DHT22;14378;51.796;5.808;2022-08-19T10:44:25;24.50;99.90
26803;DHT22;14378;51.796;5.808;2022-08-19T10:46:32;24.80;99.90
26803;DHT22;14378;51.796;5.808;2022-08-19T10:48:33;25.10;99.90
26803;DHT22;14378;51.796;5.808;2022-08-19T10:50:36;25.30;99.90
26803;DHT22;14378;51.796;5.808;2022-08-19T10:52:55;25.30;99.90
26803;DHT22;14378;51.796;5.808;2022-08-19T10:54:56;25.30;99.90
26803;DHT22;14378;51.796;5.808;2022-08-19T10:57:16;25.50;99.90
26803;DHT22;14378;51.796;5.808;2022-08-19T10:59:25;25.70;99.90
26803;DHT22;14378;51.796;5.808;2022-08-19T11:01:28;25.80;99.90
26803;DHT22;14378;51.796;5.808;2022-08-19T11:03:33;25.90;99.90
26803;DHT22;14378;51.796;5.808;2022-08-19T11:05:34;26.00;99.90
26803;DHT22;14378;51.796;5.808;2022-08-19T11:07:36;26.10;99.90
26803;DHT22;14378;51.796;5.808;2022-08-19T11:09:40;26.20;99.90
26803;DHT22;14378;51.796;5.808;2022-08-19T11:11:42;26.30;99.90
26803;DHT22;14378;51.796;5.808;2022-08-19T11:13:44;26.50;99.90
26803;DHT22;14378;51.796;5.808;2022-08-19T11:15:46;26.50;99.90
26803;DHT22;14378;51.796;5.808;2022-08-19T11:17:48;26.50;99.90
26803;DHT22;14378;51.796;5.808;2022-08-19T11:19:49;26.40;99.90
26803;DHT22;14378;51.796;5.808;2022-08-19T11:21:51;26.40;99.90
26803;DHT22;14378;51.796;5.808;2022-08-19T11:23:56;26.40;99.90
26803;DHT22;14378;51.796;5.808;2022-08-19T11:25:57;26.50;99.90
26803;DHT22;14378;51.796;5.808;2022-08-19T11:27:58;26.50;99.90
26803;DHT22;14378;51.796;5.808;2022-08-19T11:30:03;26.60;99.90
26803;DHT22;14378;51.796;5.808;2022-08-19T11:32:07;26.70;99.90
26803;DHT22;14378;51.796;5.808;2022-08-19T11:34:11;26.80;99.90
26803;DHT22;14378;51.796;5.808;2022-08-19T11:36:13;26.90;99.90
26803;DHT22;14378;51.796;5.808;2022-08-19T11:38:14;26.80;99.90
26803;DHT22;14378;51.796;5.808;2022-08-19T11:40:15;26.80;99.90
26803;DHT22;14378;51.796;5.808;2022-08-19T11:42:17;26.80;99.90
26803;DHT22;14378;51.796;5.808;2022-08-19T11:44:37;26.80;99.90
26803;DHT22;14378;51.796;5.808;2022-08-19T11:46:38;26.80;99.90
26803;DHT22;14378;51.796;5.808;2022-08-19T11:48:39;26.80;99.90
26803;DHT22;14378;51.796;5.808;2022-08-19T11:50:40;26.80;99.90
26803;DHT22;14378;51.796;5.808;2022-08-19T11:52:43;27.00;99.90
26803;DHT22;14378;51.796;5.808;2022-08-19T11:54:45;27.10;99.90
26803;DHT22;14378;51.796;5.808;2022-08-19T11:56:46;27.10;99.90
26803;DHT22;14378;51.796;5.808;2022-08-19T11:58:52;26.90;99.90
26803;DHT22;14378;51.796;5.808;2022-08-19T12:00:53;26.80;99.90
26803;DHT22;14378;51.796;5.808;2022-08-19T12:02:54;26.80;99.90
26803;DHT22;14378;51.796;5.808;2022-08-19T12:04:55;26.80;99.90
26803;DHT22;14378;51.796;5.808;2022-08-19T12:06:57;26.90;99.90
26803;DHT22;14378;51.796;5.808;2022-08-19T12:09:00;27.00;99.90
26803;DHT22;14378;51.796;5.808;2022-08-19T12:11:02;27.10;99.90
26803;DHT22;14378;51.796;5.808;2022-08-19T12:13:03;27.00;99.90
26803;DHT22;14378;51.796;5.808;2022-08-19T12:15:05;27.10;99.90
26803;DHT22;14378;51.796;5.808;2022-08-19T12:17:06;27.20;99.90
26803;DHT22;14378;51.796;5.808;2022-08-19T12:19:09;27.50;99.90
26803;DHT22;14378;51.796;5.808;2022-08-19T12:21:10;27.60;99.90
26803;DHT22;14378;51.796;5.808;2022-08-19T12:23:12;27.80;99.90
26803;DHT22;14378;51.796;5.808;2022-08-19T12:25:14;28.10;99.90
26803;DHT22;14378;51.796;5.808;2022-08-19T12:27:15;28.10;99.90
26803;DHT22;14378;51.796;5.808;2022-08-19T12:29:16;28.30;99.90
26803;DHT22;14378;51.796;5.808;2022-08-19T12:31:18;28.50;99.90
26803;DHT22;14378;51.796;5.808;2022-08-19T12:33:20;28.80;99.90
26803;DHT22;14378;51.796;5.808;2022-08-19T12:35:25;28.80;99.90
26803;DHT22;14378;51.796;5.808;2022-08-19T12:37:26;28.80;99.90
26803;DHT22;14378;51.796;5.808;2022-08-19T12:39:27;28.90;99.90
26803;DHT22;14378;51.796;5.808;2022-08-19T12:41:28;28.90;99.90
26803;DHT22;14378;51.796;5.808;2022-08-19T12:43:29;28.90;99.90
26803;DHT22;14378;51.796;5.808;2022-08-19T12:45:32;29.20;99.90
26803;DHT22;14378;51.796;5.808;2022-08-19T12:47:33;29.30;99.90
26803;DHT22;14378;51.796;5.808;2022-08-19T12:49:34;29.20;99.90
26803;DHT22;14378;51.796;5.808;2022-08-19T12:51:37;29.20;99.90
26803;DHT22;14378;51.796;5.808;2022-08-19T12:53:39;29.10;99.90
26803;DHT22;14378;51.796;5.808;2022-08-19T12:55:40;29.00;99.90
26803;DHT22;14378;51.796;5.808;2022-08-19T12:57:43;28.80;99.90
26803;DHT22;14378;51.796;5.808;2022-08-19T12:59:44;28.70;99.90
26803;DHT22;14378;51.796;5.808;2022-08-19T13:01:45;28.90;99.90
26803;DHT22;14378;51.796;5.808;2022-08-19T13:03:46;29.10;99.90
26803;DHT22;14378;51.796;5.808;2022-08-19T13:05:50;29.30;99.90
26803;DHT22;14378;51.796;5.808;2022-08-19T13:07:53;29.60;99.90
26803;DHT22;14378;51.796;5.808;2022-08-19T13:09:58;29.70;99.90
26803;DHT22;14378;51.796;5.808;2022-08-19T13:11:59;30.00;99.90